Time;durP1;ratioP1;P1;durP2;ratioP2;P2;SDS_P1;SDS_P2;PMS_P1;PMS_P2;Temp;Humidity;BMP_temperature;BMP_pressure;BME280_temperature;BME280_humidity;BME280_pressure;Samples;Min_cycle;Max_cycle;Signal;HPM_P1;HPM_P2
2021/01/24 00:00:30;;;;;;;;;;;;;;;-1.07;100.00;98949.78;5110498;28;19930;-75
2021/01/24 00:02:57;;;;;;;;;;;;;;;-1.06;100.00;98955.00;5110606;28;19924;-76
2021/01/24 00:05:23;;;;;;;;;;;;;;;-1.04;100.00;98947.78;5110330;28;19923;-76
2021/01/24 00:07:49;;;;;;;;;;;;;;;-1.02;100.00;98951.25;5111661;28;19955;-75
2021/01/24 00:10:17;;;;;;;;;;;;;;;-1.01;100.00;98941.44;5111751;28;19927;-76
2021/01/24 00:12:42;;;;;;;;;;;;;;;-0.99;100.00;98944.84;5112447;28;20411;-76
2021/01/24 00:15:09;;;;;;;;;;;;;;;-0.97;100.00;98942.09;5112237;28;19924;-76
2021/01/24 00:17:34;;;;;;;;;;;;;;;-0.97;100.00;98944.75;5111535;28;19981;-77
2021/01/24 00:20:01;;;;;;;;;;;;;;;-0.98;100.00;98945.72;5112005;28;19923;-77
2021/01/24 00:22:27;;;;;;;;;;;;;;;-0.99;100.00;98942.16;5110361;28;19932;-77
2021/01/24 00:24:53;;;;;;;;;;;;;;;-0.98;100.00;98948.38;5111567;28;19924;-76
2021/01/24 00:27:19;;;;;;;;;;;;;;;-0.97;100.00;98948.28;5107012;28;20308;-76
2021/01/24 00:29:45;;;;;;;;;;;;;;;-0.99;100.00;98942.16;5110335;28;19931;-77
2021/01/24 00:32:11;;;;;;;;;;;;;;;-1.00;100.00;98937.81;5111551;28;19930;-77
2021/01/24 00:34:37;;;;;;;;;;;;;;;-1.00;100.00;98945.81;5111741;28;19924;-77
2021/01/24 00:37:03;;;;;;;;;;;;;;;-1.01;100.00;98942.28;5111591;28;19977;-76
2021/01/24 00:39:29;;;;;;;;;;;;;;;-0.99;100.00;98946.66;5111379;28;20018;-76
2021/01/24 00:41:55;;;;;;;;;;;;;;;-0.98;100.00;98943.03;5111857;28;20404;-77
2021/01/24 00:44:21;;;;;;;;;;;;;;;-0.97;100.00;98953.59;5111840;28;19924;-76
2021/01/24 00:46:46;;;;;;;;;;;;;;;-0.96;100.00;98949.13;5111374;28;20324;-76
2021/01/24 00:49:12;;;;;;;;;;;;;;;-0.95;100.00;98948.19;5111294;28;20453;-76
2021/01/24 00:51:38;;;;;;;;;;;;;;;-0.95;100.00;98943.72;5111709;28;19934;-76
2021/01/24 00:54:05;;;;;;;;;;;;;;;-0.92;100.00;98955.97;5110396;28;19928;-76
2021/01/24 00:56:31;;;;;;;;;;;;;;;-0.90;100.00;98944.25;5111536;28;20365;-76
2021/01/24 00:58:57;;;;;;;;;;;;;;;-0.91;100.00;98942.56;5111592;28;19931;-76
2021/01/24 01:01:23;;;;;;;;;;;;;;;-0.88;100.00;98944.19;5111640;28;19924;-76
2021/01/24 01:03:48;;;;;;;;;;;;;;;-0.88;100.00;98937.03;5111688;28;19990;-76
2021/01/24 01:06:14;;;;;;;;;;;;;;;-0.88;100.00;98944.19;5111365;28;19934;-76
2021/01/24 01:08:40;;;;;;;;;;;;;;;-0.86;100.00;98944.94;5111328;28;19928;-76
2021/01/24 01:11:06;;;;;;;;;;;;;;;-0.86;100.00;98956.44;5111782;28;20380;-76
2021/01/24 01:13:32;;;;;;;;;;;;;;;-0.86;100.00;98951.09;5111718;28;19970;-76
2021/01/24 01:15:58;;;;;;;;;;;;;;;-0.86;100.00;98956.44;5111476;28;19923;-76
2021/01/24 01:18:24;;;;;;;;;;;;;;;-0.85;100.00;98938.66;5111759;28;19927;-76
2021/01/24 01:20:50;;;;;;;;;;;;;;;-0.86;100.00;98940.44;5111729;28;19928;-76
2021/01/24 01:23:15;;;;;;;;;;;;;;;-0.86;100.00;98940.44;5111595;28;19924;-76
2021/01/24 01:25:41;;;;;;;;;;;;;;;-0.85;100.00;98949.31;5110957;28;20419;-77
2021/01/24 01:28:08;;;;;;;;;;;;;;;-0.83;100.00;98943.91;5113766;28;19931;-76
2021/01/24 01:30:33;;;;;;;;;;;;;;;-0.81;100.00;98955.31;5114688;28;19976;-76
2021/01/24 01:32:59;;;;;;;;;;;;;;;-0.82;100.00;98949.13;5114836;28;19994;-77
2021/01/24 01:35:25;;;;;;;;;;;;;;;-0.83;100.00;98946.56;5114498;28;19923;-76
2021/01/24 01:37:51;;;;;;;;;;;;;;;-0.81;100.00;98942.00;5113433;28;19923;-76
2021/01/24 01:40:17;;;;;;;;;;;;;;;-0.80;100.00;98941.03;5114602;28;19931;-76
2021/01/24 01:42:42;;;;;;;;;;;;;;;-0.82;100.00;98951.78;5114810;28;19976;-76
2021/01/24 01:45:10;;;;;;;;;;;;;;;-0.86;100.00;98956.44;5114317;28;20297;-76
2021/01/24 01:47:36;;;;;;;;;;;;;;;-0.87;100.00;98957.41;5114125;28;19935;-76
2021/01/24 01:50:01;;;;;;;;;;;;;;;-0.89;100.00;98950.47;5114545;28;19968;-76
2021/01/24 01:52:28;;;;;;;;;;;;;;;-0.90;100.00;98948.75;5114476;28;19923;-76
2021/01/24 01:54:54;;;;;;;;;;;;;;;-0.93;100.00;98957.78;5114252;28;20327;-76
2021/01/24 01:57:20;;;;;;;;;;;;;;;-0.94;100.00;98957.88;5113942;28;20018;-75
2021/01/24 01:59:46;;;;;;;;;;;;;;;-0.97;100.00;98961.59;5114240;28;19930;-76
2021/01/24 02:02:19;;;;;;;;;;;;;;;-0.98;100.00;98962.53;5114294;28;20304;-75
2021/01/24 02:04:47;;;;;;;;;;;;;;;-0.98;100.00;98962.53;5113855;28;20810;-76
2021/01/24 02:07:15;;;;;;;;;;;;;;;-0.96;100.00;98957.09;5113754;28;19955;-76
2021/01/24 02:09:42;;;;;;;;;;;;;;;-0.95;100.00;98962.38;5112780;28;20022;-76
2021/01/24 02:12:13;;;;;;;;;;;;;;;-0.96;100.00;98952.66;5114133;28;19967;-76
2021/01/24 02:14:40;;;;;;;;;;;;;;;-0.94;100.00;98955.22;5130795;28;19923;-76
2021/01/24 02:17:10;;;;;;;;;;;;;;;-0.95;100.00;98959.72;5130298;28;19924;-76
2021/01/24 02:19:42;;;;;;;;;;;;;;;-0.95;100.00;98957.03;5130537;28;19970;-77
2021/01/24 02:22:08;;;;;;;;;;;;;;;-0.95;100.00;98956.16;5126488;28;20445;-77
2021/01/24 02:24:35;;;;;;;;;;;;;;;-0.96;100.00;98952.66;5113712;28;19970;-76
2021/01/24 02:27:03;;;;;;;;;;;;;;;-0.98;100.00;98951.88;5113920;28;20401;-75
2021/01/24 02:29:37;;;;;;;;;;;;;;;-0.99;100.00;98963.47;5113907;28;20028;-76
2021/01/24 02:32:04;;;;;;;;;;;;;;;-1.00;100.00;98959.13;5113622;28;19955;-76
2021/01/24 02:34:32;;;;;;;;;;;;;;;-1.02;100.00;98958.34;5113471;28;19985;-76
2021/01/24 02:36:59;;;;;;;;;;;;;;;-0.98;100.00;98957.22;5113410;28;19955;-76
2021/01/24 02:39:25;;;;;;;;;;;;;;;-0.96;100.00;98957.97;5116554;28;20068;-76
2021/01/24 02:41:51;;;;;;;;;;;;;;;-0.94;100.00;98963.22;5113180;28;20396;-76
2021/01/24 02:44:27;;;;;;;;;;;;;;;-0.96;100.00;98971.31;5113417;28;19924;-76
2021/01/24 02:46:54;;;;;;;;;;;;;;;-0.98;100.00;98959.03;5113161;28;19924;-76
2021/01/24 02:49:21;;;;;;;;;;;;;;;-0.98;100.00;98962.53;5113240;28;20035;-76
2021/01/24 02:51:47;;;;;;;;;;;;;;;-0.99;100.00;98952.81;5094957;28;20334;-76
2021/01/24 02:54:13;;;;;;;;;;;;;;;-1.02;100.00;98951.25;5113265;28;19949;-76
2021/01/24 02:56:39;;;;;;;;;;;;;;;-1.04;100.00;98953.13;5112719;28;19924;-76
2021/01/24 02:59:05;;;;;;;;;;;;;;;-1.07;100.00;98956.00;5112608;28;20014;-76
2021/01/24 03:01:31;;;;;;;;;;;;;;;-1.07;100.00;98952.44;5112847;28;20265;-76
2021/01/24 03:03:57;;;;;;;;;;;;;;;-1.07;100.00;98949.78;5111785;28;19969;-76
2021/01/24 03:06:23;;;;;;;;;;;;;;;-1.03;100.00;98948.63;5112625;28;19924;-76
2021/01/24 03:08:49;;;;;;;;;;;;;;;-0.99;100.00;98944.84;5112719;28;20027;-76
2021/01/24 03:11:17;;;;;;;;;;;;;;;-0.98;100.00;98943.03;5112916;28;19927;-75
2021/01/24 03:13:44;;;;;;;;;;;;;;;-0.99;100.00;98938.66;5112880;28;19928;-76
2021/01/24 03:16:12;;;;;;;;;;;;;;;-1.00;100.00;98948.47;5112443;28;19924;-76
2021/01/24 03:18:40;;;;;;;;;;;;;;;-0.99;100.00;98942.16;5112651;28;20018;-76
2021/01/24 03:21:07;;;;;;;;;;;;;;;-0.98;100.00;98949.22;5112667;28;19959;-76
2021/01/24 03:23:34;;;;;;;;;;;;;;;-1.01;100.00;98938.75;5112515;28;20357;-76
2021/01/24 03:26:00;;;;;;;;;;;;;;;-1.00;100.00;98927.16;5112295;28;20014;-76
2021/01/24 03:28:26;;;;;;;;;;;;;;;-0.98;100.00;98935.06;5112468;28;19931;-76
2021/01/24 03:30:52;;;;;;;;;;;;;;;-0.99;100.00;98936.00;5112451;28;19924;-76
2021/01/24 03:33:18;;;;;;;;;;;;;;;-0.99;100.00;98928.84;5112149;28;20389;-76
2021/01/24 03:35:44;;;;;;;;;;;;;;;-0.97;100.00;98920.78;5112192;28;20018;-76
2021/01/24 03:38:10;;;;;;;;;;;;;;;-0.96;100.00;98919.81;5112346;28;19924;-76
2021/01/24 03:40:36;;;;;;;;;;;;;;;-0.97;100.00;98915.47;5112035;28;19992;-76
2021/01/24 03:43:02;;;;;;;;;;;;;;;-0.97;100.00;98921.63;5112347;28;19963;-76
2021/01/24 03:45:28;;;;;;;;;;;;;;;-0.98;100.00;98922.56;5112084;28;20434;-76
2021/01/24 03:47:54;;;;;;;;;;;;;;;-0.96;100.00;98923.34;5111906;28;19927;-76
2021/01/24 03:50:20;;;;;;;;;;;;;;;-0.94;100.00;98925.91;5110910;28;19963;-75
2021/01/24 03:52:45;;;;;;;;;;;;;;;-0.93;100.00;98920.50;5112149;28;19924;-76
2021/01/24 03:55:12;;;;;;;;;;;;;;;-0.90;100.00;98922.94;5112062;28;19928;-76
2021/01/24 03:57:38;;;;;;;;;;;;;;;-0.87;100.00;98921.91;5111819;28;20065;-76
2021/01/24 04:00:05;;;;;;;;;;;;;;;-0.80;100.00;98917.03;5112017;28;19974;-76
2021/01/24 04:02:38;;;;;;;;;;;;;;;-0.81;100.00;98916.19;5112022;28;19927;-76
2021/01/24 04:05:04;;;;;;;;;;;;;;;-0.80;100.00;98920.59;5111799;28;20174;-76
2021/01/24 04:07:30;;;;;;;;;;;;;;;-0.80;100.00;98917.91;5111554;28;20022;-76
2021/01/24 04:09:56;;;;;;;;;;;;;;;-0.78;100.00;98918.66;5111857;28;19946;-76
2021/01/24 04:12:22;;;;;;;;;;;;;;;-0.77;100.00;98911.53;5111748;28;19931;-76
2021/01/24 04:14:48;;;;;;;;;;;;;;;-0.76;100.00;98910.56;5111646;28;19927;-76
2021/01/24 04:17:14;;;;;;;;;;;;;;;-0.78;100.00;98915.16;5111656;28;19924;-76
2021/01/24 04:19:40;;;;;;;;;;;;;;;-0.76;100.00;98914.09;5111810;28;19950;-76
2021/01/24 04:22:06;;;;;;;;;;;;;;;-0.75;100.00;98925.59;5111785;28;19985;-76
2021/01/24 04:24:31;;;;;;;;;;;;;;;-0.74;100.00;98919.34;5110409;28;20404;-75
2021/01/24 04:26:57;;;;;;;;;;;;;;;-0.71;100.00;98917.34;5111207;28;19931;-76
2021/01/24 04:29:23;;;;;;;;;;;;;;;-0.71;100.00;98917.34;5110409;28;19931;-76
2021/01/24 04:31:50;;;;;;;;;;;;;;;-0.66;100.00;98924.19;5111657;28;19968;-77
2021/01/24 04:34:15;;;;;;;;;;;;;;;-0.66;100.00;98917.03;5111631;28;20039;-76
2021/01/24 04:36:41;;;;;;;;;;;;;;;-0.63;100.00;98922.16;5111257;28;20290;-76
2021/01/24 04:39:07;;;;;;;;;;;;;;;-0.63;100.00;98919.50;5111455;28;19924;-76
2021/01/24 04:41:35;;;;;;;;;;;;;;;-0.66;100.00;98917.03;5111524;28;19955;-76
2021/01/24 04:44:01;;;;;;;;;;;;;;;-0.63;100.00;98915.97;5110367;28;20397;-76
2021/01/24 04:46:27;;;;;;;;;;;;;;;-0.61;100.00;98914.09;5111202;28;19970;-76
2021/01/24 04:48:53;;;;;;;;;;;;;;;-0.57;100.00;98916.44;5111518;28;20022;-76
2021/01/24 04:51:19;;;;;;;;;;;;;;;-0.55;100.00;98916.34;5111425;28;19974;-77
2021/01/24 04:53:46;;;;;;;;;;;;;;;-0.53;100.00;98909.97;5111446;28;19923;-76
2021/01/24 04:56:13;;;;;;;;;;;;;;;-0.52;100.00;98906.34;5106477;28;19924;-76
2021/01/24 04:58:38;;;;;;;;;;;;;;;-0.48;100.00;98903.47;5101126;28;20028;-76
2021/01/24 05:01:05;;;;;;;;;;;;;;;-0.47;100.00;98905.19;5102015;28;20372;-76
2021/01/24 05:03:31;;;;;;;;;;;;;;;-0.47;100.00;98907.84;5094516;28;20022;-77
2021/01/24 05:05:57;;;;;;;;;;;;;;;-0.45;100.00;98900.63;5112740;28;19977;-76
2021/01/24 05:08:23;;;;;;;;;;;;;;;-0.47;100.00;98903.38;5100613;28;19974;-76
2021/01/24 05:10:54;;;;;;;;;;;;;;;-0.45;100.00;98901.47;5094714;28;20325;-76
2021/01/24 05:13:25;;;;;;;;;;;;;;;-0.42;100.00;98897.75;5105831;28;20420;-75
2021/01/24 05:15:51;;;;;;;;;;;;;;;-0.41;100.00;98896.81;5096314;28;19955;-75
2021/01/24 05:18:16;;;;;;;;;;;;;;;-0.42;100.00;98897.75;5094970;28;20438;-75
2021/01/24 05:20:43;;;;;;;;;;;;;;;-0.46;100.00;98890.91;5094587;28;20454;-76
2021/01/24 05:23:10;;;;;;;;;;;;;;;-0.47;100.00;98891.88;5105488;28;20010;-76
2021/01/24 05:25:35;;;;;;;;;;;;;;;-0.45;100.00;98885.47;5113177;28;19931;-76
2021/01/24 05:28:16;;;;;;;;;;;;;;;-0.45;100.00;98889.97;5114391;28;19923;-76
2021/01/24 05:30:42;;;;;;;;;;;;;;;-0.46;100.00;98893.59;5105859;28;20305;-76
2021/01/24 05:33:07;;;;;;;;;;;;;;;-0.46;100.00;98888.25;5094253;28;20027;-75
2021/01/24 05:35:45;;;;;;;;;;;;;;;-0.47;100.00;98892.72;5100533;28;19927;-76
2021/01/24 05:38:15;;;;;;;;;;;;;;;-0.49;100.00;98885.75;5114604;28;19967;-76
2021/01/24 05:40:41;;;;;;;;;;;;;;;-0.52;100.00;98890.34;5097742;28;20654;-76
2021/01/24 05:43:07;;;;;;;;;;;;;;;-0.50;100.00;98892.91;5094186;28;19924;-76
2021/01/24 05:45:37;;;;;;;;;;;;;;;-0.49;100.00;98888.44;5106857;28;19968;-76
2021/01/24 05:48:04;;;;;;;;;;;;;;;-0.50;100.00;98898.25;5094246;28;19939;-76
2021/01/24 05:50:34;;;;;;;;;;;;;;;-0.49;100.00;98889.31;5103503;28;19955;-75
2021/01/24 05:53:03;;;;;;;;;;;;;;;-0.51;100.00;98900.06;5100299;28;19959;-76
2021/01/24 05:55:31;;;;;;;;;;;;;;;-0.52;100.00;98890.34;5113878;28;19962;-76
2021/01/24 05:57:57;;;;;;;;;;;;;;;-0.54;100.00;98902.91;5095099;28;20301;-75
2021/01/24 06:00:23;;;;;;;;;;;;;;;-0.54;100.00;98902.06;5101522;28;19924;-76
2021/01/24 06:02:50;;;;;;;;;;;;;;;-0.55;100.00;98905.69;5105200;28;20019;-75
2021/01/24 06:05:16;;;;;;;;;;;;;;;-0.54;100.00;98896.75;5113704;28;19930;-75
2021/01/24 06:07:41;;;;;;;;;;;;;;;-0.55;100.00;98895.91;5110836;28;19932;-75
2021/01/24 06:10:08;;;;;;;;;;;;;;;-0.52;100.00;98906.34;5111885;28;20484;-75
2021/01/24 06:12:35;;;;;;;;;;;;;;;-0.51;100.00;98900.06;5114140;27;20450;-75
2021/01/24 06:15:03;;;;;;;;;;;;;;;-0.52;100.00;98897.50;5113857;28;20432;-74
2021/01/24 06:17:30;;;;;;;;;;;;;;;-0.51;100.00;98896.53;5113998;28;19930;-75
2021/01/24 06:19:56;;;;;;;;;;;;;;;-0.51;100.00;98899.19;5113678;28;19981;-75
2021/01/24 06:22:24;;;;;;;;;;;;;;;-0.52;100.00;98901.00;5113342;28;20065;-74
2021/01/24 06:24:51;;;;;;;;;;;;;;;-0.53;100.00;98909.97;5104725;28;19973;-74
2021/01/24 06:27:20;;;;;;;;;;;;;;;-0.49;100.00;98904.41;5094447;28;19978;-74
2021/01/24 06:29:47;;;;;;;;;;;;;;;-0.47;100.00;98907.84;5094330;28;19967;-75
2021/01/24 06:32:23;;;;;;;;;;;;;;;-0.48;100.00;98893.69;5109095;28;19924;-74
2021/01/24 06:34:49;;;;;;;;;;;;;;;-0.51;100.00;98902.72;5107256;28;20447;-74
2021/01/24 06:37:18;;;;;;;;;;;;;;;-0.51;100.00;98899.19;5113713;28;19935;-74
2021/01/24 06:39:48;;;;;;;;;;;;;;;-0.49;100.00;98899.09;5108692;28;19930;-74
2021/01/24 06:42:34;;;;;;;;;;;;;;;-0.47;100.00;98905.19;5093181;28;19974;-75
2021/01/24 06:45:01;;;;;;;;;;;;;;;-0.47;100.00;98902.53;5101205;28;20006;-75
2021/01/24 06:47:35;;;;;;;;;;;;;;;-0.46;100.00;98912.25;5113144;28;20448;-74
2021/01/24 06:50:01;;;;;;;;;;;;;;;-0.46;100.00;98904.25;5108593;28;19932;-75
2021/01/24 06:52:27;;;;;;;;;;;;;;;-0.46;100.00;98901.59;5093044;28;20342;-74
2021/01/24 06:54:53;;;;;;;;;;;;;;;-0.46;100.00;98909.56;5093217;28;20397;-74
2021/01/24 06:57:19;;;;;;;;;;;;;;;-0.46;100.00;98906.91;5092750;28;19924;-75
2021/01/24 06:59:45;;;;;;;;;;;;;;;-0.46;100.00;98909.56;5102440;28;20237;-76
2021/01/24 07:02:22;;;;;;;;;;;;;;;-0.47;100.00;98915.84;5095286;28;19924;-76
2021/01/24 07:05:03;;;;;;;;;;;;;;;-0.47;100.00;98922.03;5102489;28;20405;-76
2021/01/24 07:07:33;;;;;;;;;;;;;;;-0.44;100.00;98918.31;5096005;28;19974;-74
2021/01/24 07:10:00;;;;;;;;;;;;;;;-0.43;100.00;98915.53;5092543;28;19930;-73
2021/01/24 07:12:42;;;;;;;;;;;;;;;-0.46;100.00;98910.41;5092449;28;19959;-74
2021/01/24 07:15:09;;;;;;;;;;;;;;;-0.42;100.00;98911.09;5092311;28;19924;-73
2021/01/24 07:17:36;;;;;;;;;;;;;;;-0.42;100.00;98911.94;5092157;28;20027;-73
2021/01/24 07:20:03;;;;;;;;;;;;;;;-0.39;100.00;98908.22;5092243;28;19924;-73
2021/01/24 07:22:30;;;;;;;;;;;;;;;-0.38;100.00;98909.94;5092176;28;19983;-73
2021/01/24 07:24:57;;;;;;;;;;;;;;;-0.38;100.00;98908.09;5092161;28;19977;-73
2021/01/24 07:27:24;;;;;;;;;;;;;;;-0.38;100.00;98913.44;5092049;28;19928;-74
2021/01/24 07:29:50;;;;;;;;;;;;;;;-0.36;100.00;98910.66;5092524;28;20014;-74
2021/01/24 07:32:18;;;;;;;;;;;;;;;-0.32;100.00;98922.00;5091629;28;19935;-73
2021/01/24 07:34:45;;;;;;;;;;;;;;;-0.31;100.00;98921.91;5092152;28;19968;-74
2021/01/24 07:37:13;;;;;;;;;;;;;;;-0.31;100.00;98924.56;5091940;28;19946;-74
2021/01/24 07:39:39;;;;;;;;;;;;;;;-0.32;100.00;98925.53;5092049;28;20014;-74
2021/01/24 07:42:05;;;;;;;;;;;;;;;-0.26;100.00;98919.78;5092133;28;20039;-74
2021/01/24 07:44:36;;;;;;;;;;;;;;;-0.30;100.00;98912.94;5091717;28;19934;-75
2021/01/24 07:47:02;;;;;;;;;;;;;;;-0.31;100.00;98918.38;5089966;28;19924;-74
2021/01/24 07:49:27;;;;;;;;;;;;;;;-0.25;100.00;98918.84;5091923;28;19930;-74
2021/01/24 07:51:54;;;;;;;;;;;;;;;-0.19;100.00;98917.56;5091645;28;19939;-75
2021/01/24 07:54:20;;;;;;;;;;;;;;;-0.14;100.00;98917.28;5104717;28;20014;-75
2021/01/24 07:56:46;;;;;;;;;;;;;;;-0.05;100.00;98920.19;5109184;28;20023;-75
2021/01/24 07:59:12;;;;;;;;;;;;;;;0.01;100.00;98923.41;5091824;28;19928;-75
2021/01/24 08:01:38;;;;;;;;;;;;;;;0.08;100.00;98919.38;5096590;28;20666;-76
2021/01/24 08:04:04;;;;;;;;;;;;;;;0.11;100.00;98922.69;5112167;28;19924;-75
2021/01/24 08:06:31;;;;;;;;;;;;;;;0.18;100.00;98924.97;5110866;28;20633;-75
2021/01/24 08:08:57;;;;;;;;;;;;;;;0.26;100.00;98922.63;5108902;28;20077;-75
2021/01/24 08:11:23;;;;;;;;;;;;;;;0.33;100.00;98926.59;5100897;28;20018;-75
2021/01/24 08:13:49;;;;;;;;;;;;;;;0.32;100.00;98920.41;5102524;28;19924;-75
2021/01/24 08:16:17;;;;;;;;;;;;;;;0.33;100.00;98921.25;5102105;28;20032;-75
2021/01/24 08:18:45;;;;;;;;;;;;;;;0.41;100.00;98924.25;5111208;28;19989;-75
2021/01/24 08:21:12;;;;;;;;;;;;;;;0.49;100.00;98921.06;5098544;28;19933;-75
2021/01/24 08:23:39;;;;;;;;;;;;;;;0.51;100.00;98916.50;5092636;28;19924;-76
2021/01/24 08:26:07;;;;;;;;;;;;;;;0.59;100.00;98919.47;5107839;28;20441;-76
2021/01/24 08:28:33;;;;;;;;;;;;;;;0.58;100.00;98922.28;5097361;28;19947;-75
2021/01/24 08:31:00;;;;;;;;;;;;;;;0.55;100.00;98927.78;5101960;28;19923;-75
2021/01/24 08:33:26;;;;;;;;;;;;;;;0.65;100.00;98926.22;5111930;28;19959;-75
2021/01/24 08:35:52;;;;;;;;;;;;;;;0.70;100.00;98929.44;5111746;28;20349;-76
2021/01/24 08:38:18;;;;;;;;;;;;;;;0.67;100.00;98932.31;5115466;28;19931;-75
2021/01/24 08:40:43;;;;;;;;;;;;;;;0.79;100.00;98931.47;5115745;28;19939;-74
2021/01/24 08:43:10;;;;;;;;;;;;;;;0.85;100.00;98926.66;5115197;28;19923;-75
2021/01/24 08:45:36;;;;;;;;;;;;;;;0.87;100.00;98933.59;5104466;28;20431;-75
2021/01/24 08:48:03;;;;;;;;;;;;;;;0.98;100.00;98930.19;5115685;28;19928;-75
2021/01/24 08:50:30;;;;;;;;;;;;;;;0.91;100.00;98935.09;5115824;28;20436;-75
2021/01/24 08:52:57;;;;;;;;;;;;;;;0.72;100.00;98932.88;5102635;28;19951;-76
2021/01/24 08:55:23;;;;;;;;;;;;;;;0.65;100.00;98927.06;5105330;28;20408;-75
2021/01/24 08:57:49;;;;;;;;;;;;;;;0.53;100.00;98925.22;5115579;28;20012;-75
2021/01/24 09:00:17;;;;;;;;;;;;;;;0.53;100.00;98932.41;5112618;27;19956;-75
2021/01/24 09:02:42;;;;;;;;;;;;;;;0.54;100.00;98926.94;5109615;28;20031;-75
2021/01/24 09:05:09;;;;;;;;;;;;;;;0.57;100.00;98933.91;5115597;28;20300;-75
2021/01/24 09:07:36;;;;;;;;;;;;;;;0.55;100.00;98938.47;5115354;28;20080;-75
2021/01/24 09:10:13;;;;;;;;;;;;;;;0.60;100.00;98939.91;5115470;28;19924;-75
2021/01/24 09:12:38;;;;;;;;;;;;;;;0.65;100.00;98943.06;5115648;28;19967;-74
2021/01/24 09:15:05;;;;;;;;;;;;;;;0.66;100.00;98942.13;5115319;28;19931;-77
2021/01/24 09:17:31;;;;;;;;;;;;;;;0.58;100.00;98943.63;5115192;28;20019;-75
2021/01/24 09:19:57;;;;;;;;;;;;;;;0.55;100.00;98938.47;5115348;28;20015;-77
2021/01/24 09:22:23;;;;;;;;;;;;;;;0.54;100.00;98942.13;5115107;28;20583;-75
2021/01/24 09:24:49;;;;;;;;;;;;;;;0.51;100.00;98943.19;5112109;28;19939;-74
2021/01/24 09:27:15;;;;;;;;;;;;;;;0.47;100.00;98942.53;5104932;28;20511;-73
2021/01/24 09:29:41;;;;;;;;;;;;;;;0.52;100.00;98944.03;5114809;28;20001;-75
2021/01/24 09:32:08;;;;;;;;;;;;;;;0.48;100.00;98944.25;5097763;28;19924;-74
2021/01/24 09:34:35;;;;;;;;;;;;;;;0.46;100.00;98943.50;5094468;28;19924;-74
2021/01/24 09:37:01;;;;;;;;;;;;;;;0.42;100.00;98942.00;5094342;28;20043;-75
2021/01/24 09:39:27;;;;;;;;;;;;;;;0.46;100.00;98943.50;5094338;28;20039;-75
2021/01/24 09:41:53;;;;;;;;;;;;;;;0.44;100.00;98945.44;5094374;28;19924;-75
2021/01/24 09:44:18;;;;;;;;;;;;;;;0.43;100.00;98950.88;5111721;28;19962;-75
2021/01/24 09:46:44;;;;;;;;;;;;;;;0.36;100.00;98946.88;5114695;28;19924;-75
2021/01/24 09:49:10;;;;;;;;;;;;;;;0.37;100.00;98944.09;5117312;28;20331;-76
2021/01/24 09:51:37;;;;;;;;;;;;;;;0.42;100.00;98952.66;5099593;28;19928;-75
2021/01/24 09:54:03;;;;;;;;;;;;;;;0.45;100.00;98948.94;5096659;28;20007;-75
2021/01/24 09:56:29;;;;;;;;;;;;;;;0.50;100.00;98953.00;5094385;28;19956;-75
2021/01/24 09:58:55;;;;;;;;;;;;;;;0.54;100.00;98955.47;5110541;28;19970;-75
2021/01/24 10:01:22;;;;;;;;;;;;;;;0.59;100.00;98951.53;5104458;28;20018;-76
2021/01/24 10:03:48;;;;;;;;;;;;;;;0.68;100.00;98951.84;5111405;28;19931;-74
2021/01/24 10:06:14;;;;;;;;;;;;;;;0.70;100.00;98953.47;5112894;28;19924;-73
2021/01/24 10:08:41;;;;;;;;;;;;;;;0.70;100.00;98950.78;5107981;28;20023;-74
2021/01/24 10:11:07;;;;;;;;;;;;;;;0.75;100.00;98954.00;5105255;28;19955;-74
2021/01/24 10:13:33;;;;;;;;;;;;;;;0.77;100.00;98946.72;5106990;28;19924;-74
2021/01/24 10:15:58;;;;;;;;;;;;;;;0.83;100.00;98948.16;5093584;28;19924;-74
2021/01/24 10:18:24;;;;;;;;;;;;;;;0.86;100.00;98947.06;5093762;28;19978;-74
2021/01/24 10:20:50;;;;;;;;;;;;;;;0.80;100.00;98949.22;5093892;28;20297;-74
2021/01/24 10:23:20;;;;;;;;;;;;;;;0.78;100.00;98951.13;5093722;28;19959;-74
2021/01/24 10:25:46;;;;;;;;;;;;;;;0.83;100.00;98946.31;5093177;28;19924;-74
2021/01/24 10:28:12;;;;;;;;;;;;;;;0.88;100.00;98953.16;5093550;28;19932;-74
2021/01/24 10:30:38;;;;;;;;;;;;;;;0.87;100.00;98948.75;5093606;28;19928;-74
2021/01/24 10:33:04;;;;;;;;;;;;;;;0.95;100.00;98952.63;5092411;28;19931;-74
2021/01/24 10:35:30;;;;;;;;;;;;;;;1.08;100.00;98949.09;5093363;28;20407;-74
2021/01/24 10:37:55;;;;;;;;;;;;;;;1.13;100.00;98949.63;5093224;28;20417;-74
2021/01/24 10:40:21;;;;;;;;;;;;;;;1.19;100.00;98949.19;5093190;28;19931;-74
2021/01/24 10:42:48;;;;;;;;;;;;;;;1.24;100.00;98943.50;5093421;28;19924;-74
2021/01/24 10:45:14;;;;;;;;;;;;;;;1.30;100.00;98943.09;5093321;28;20015;-74
2021/01/24 10:47:40;;;;;;;;;;;;;;;1.41;100.00;98940.50;5093068;28;19924;-74
2021/01/24 10:50:07;;;;;;;;;;;;;;;1.43;100.00;98938.56;5093200;28;20378;-74
2021/01/24 10:52:33;;;;;;;;;;;;;;;1.48;100.00;98938.22;5093052;28;19964;-74
2021/01/24 10:54:59;;;;;;;;;;;;;;;1.60;100.00;98934.66;5093062;28;19931;-74
2021/01/24 10:57:24;;;;;;;;;;;;;;;1.70;100.00;98934.88;5092665;28;19924;-74
2021/01/24 10:59:51;;;;;;;;;;;;;;;1.76;100.00;98939.75;5092366;28;19969;-74
2021/01/24 11:02:17;;;;;;;;;;;;;;;1.86;100.00;98942.63;5092883;28;20024;-74
2021/01/24 11:04:42;;;;;;;;;;;;;;;1.89;100.00;98941.53;5092807;28;19928;-74
2021/01/24 11:07:08;;;;;;;;;;;;;;;1.86;100.00;98941.75;5092596;28;19931;-73
2021/01/24 11:09:34;;;;;;;;;;;;;;;1.75;100.00;98932.72;5092571;28;19939;-74
2021/01/24 11:12:00;;;;;;;;;;;;;;;1.75;100.00;98939.88;5092808;28;19930;-74
2021/01/24 11:14:26;;;;;;;;;;;;;;;1.66;100.00;98941.41;5092722;28;19928;-74
2021/01/24 11:16:53;;;;;;;;;;;;;;;1.63;100.00;98944.28;5092359;28;20456;-73
2021/01/24 11:19:18;;;;;;;;;;;;;;;1.60;100.00;98941.84;5092451;28;20026;-73
2021/01/24 11:21:44;;;;;;;;;;;;;;;1.51;100.00;98940.69;5093743;28;20404;-73
2021/01/24 11:24:10;;;;;;;;;;;;;;;1.43;100.00;98937.69;5104722;28;19923;-74
2021/01/24 11:26:36;;;;;;;;;;;;;;;1.41;100.00;98940.50;5098340;28;20027;-73
2021/01/24 11:29:03;;;;;;;;;;;;;;;1.41;100.00;98940.50;5096488;28;19931;-74
2021/01/24 11:31:30;;;;;;;;;;;;;;;1.34;100.00;98939.22;5090705;28;19959;-73
2021/01/24 11:33:56;;;;;;;;;;;;;;;1.33;100.00;98941.03;5092256;28;19959;-73
2021/01/24 11:36:22;;;;;;;;;;;;;;;1.35;100.00;98938.28;5091837;28;19924;-73
2021/01/24 11:38:48;;;;;;;;;;;;;;;1.33;100.00;98941.03;5092191;28;19932;-73
2021/01/24 11:41:14;;;;;;;;;;;;;;;1.33;100.00;98938.34;5092046;28;20010;-73
2021/01/24 11:43:40;;;;;;;;;;;;;;;1.30;100.00;98937.75;5091986;28;20412;-73
2021/01/24 11:46:06;;;;;;;;;;;;;;;1.28;100.00;98937.84;5091818;28;19943;-73
2021/01/24 11:48:32;;;;;;;;;;;;;;;1.27;100.00;98935.25;5091882;28;19990;-73
2021/01/24 11:50:58;;;;;;;;;;;;;;;1.28;100.00;98936.97;5091986;28;20002;-74
2021/01/24 11:53:24;;;;;;;;;;;;;;;1.20;100.00;98931.34;5091849;28;20440;-74
2021/01/24 11:55:52;;;;;;;;;;;;;;;1.17;100.00;98933.25;5091713;28;19924;-74
2021/01/24 11:58:18;;;;;;;;;;;;;;;1.16;100.00;98933.34;5091939;28;20423;-74
2021/01/24 12:00:44;;;;;;;;;;;;;;;1.16;100.00;98933.34;5091797;28;19931;-74
2021/01/24 12:03:10;;;;;;;;;;;;;;;1.10;100.00;98940.00;5091855;28;20305;-75
2021/01/24 12:05:35;;;;;;;;;;;;;;;1.12;100.00;98931.88;5091602;28;20037;-74
2021/01/24 12:08:02;;;;;;;;;;;;;;;1.04;100.00;98934.22;5091702;28;19932;-74
2021/01/24 12:10:28;;;;;;;;;;;;;;;0.99;100.00;98932.75;5091689;28;20103;-75
2021/01/24 12:12:54;;;;;;;;;;;;;;;0.93;100.00;98930.50;5091082;28;19928;-74
2021/01/24 12:15:20;;;;;;;;;;;;;;;0.93;100.00;98932.31;5091724;28;19931;-74
2021/01/24 12:17:45;;;;;;;;;;;;;;;0.91;100.00;98934.22;5100987;28;19927;-75
2021/01/24 12:20:12;;;;;;;;;;;;;;;0.88;100.00;98929.94;5111994;28;19924;-75
2021/01/24 12:22:38;;;;;;;;;;;;;;;0.89;100.00;98930.81;5111946;28;19931;-75
2021/01/24 12:25:06;;;;;;;;;;;;;;;0.91;100.00;98927.09;5110538;28;19923;-75
2021/01/24 12:27:31;;;;;;;;;;;;;;;0.88;100.00;98923.75;5111580;28;19990;-74
2021/01/24 12:29:57;;;;;;;;;;;;;;;0.93;100.00;98921.63;5110343;28;19969;-74
2021/01/24 12:32:23;;;;;;;;;;;;;;;1.01;100.00;98935.31;5107496;28;19931;-75
2021/01/24 12:34:49;;;;;;;;;;;;;;;1.03;100.00;98932.50;5104107;28;20024;-72
2021/01/24 12:37:14;;;;;;;;;;;;;;;1.04;100.00;98931.56;5102395;28;20305;-73